ΕΜΥ, Εθνική Μετεωρολογική Υπηρεσία - Δελτία Καιρού, Προγνώσεις

ΑΕΡΟΝΑΥΤΙΛΙΑ

GREEK AIRPORTS CODES

LGTT 201130Z 06005KT 020V120 9999 BKN030 29/16 Q1012 RMK FEW080=

EUROPEAN AIRPORTS CODES

TAF LGTT 200700Z 2009/2018 VRB05KT 9999 FEW020 TEMPO 2009/2017 04010KT FEW020TCU SCT030 PROB30 TEMPO 2009/2016 5000 TSRA FEW018CB BKN020 BKN050=